Time,TemperatureF,DewpointF,PressureIn,WindDirection,WindDirectionDegrees,WindSpeedMPH,WindSpeedGustMPH,Humidity,HourlyPrecipIn,Conditions,Clouds,dailyrainin,SoftwareType,DateUTC
2013-05-21 00:01:00,47.0,39.0,30.19,South,180,0.0,2.0,75,0.00,,,0.01,,2013-05-21 06:01:00,
2013-05-21 00:11:00,47.0,39.0,30.19,South,180,0.0,2.0,75,0.00,,,0.01,,2013-05-21 06:11:00,
2013-05-21 00:21:00,46.0,39.0,30.17,SE,135,1.0,2.0,75,0.00,,,0.01,,2013-05-21 06:21:00,
2013-05-21 00:32:00,46.0,39.0,30.17,South,180,1.0,2.0,76,0.00,,,0.01,,2013-05-21 06:32:00,
2013-05-21 00:41:00,46.0,39.0,30.17,South,180,1.0,2.0,76,0.00,,,0.01,,2013-05-21 06:41:00,
2013-05-21 00:52:00,45.0,38.0,30.17,South,180,0.0,2.0,77,0.00,,,0.01,,2013-05-21 06:52:00,
2013-05-21 01:01:00,45.0,39.0,30.17,SE,135,0.0,2.0,78,0.00,,,0.01,,2013-05-21 07:01:00,
2013-05-21 01:11:00,45.0,39.0,30.17,SE,135,0.0,2.0,78,0.00,,,0.01,,2013-05-21 07:11:00,
2013-05-21 01:21:00,45.0,39.0,30.16,SE,135,2.0,3.0,80,0.00,,,0.01,,2013-05-21 07:21:00,
2013-05-21 01:31:00,44.0,38.0,30.16,South,180,0.0,2.0,80,0.00,,,0.01,,2013-05-21 07:31:00,
2013-05-21 01:41:00,44.0,38.0,30.16,South,180,0.0,2.0,80,0.00,,,0.01,,2013-05-21 07:41:00,
2013-05-21 01:52:00,44.0,39.0,30.16,South,180,1.0,2.0,81,0.00,,,0.01,,2013-05-21 07:52:00,
2013-05-21 02:01:00,44.0,39.0,30.16,SE,135,1.0,2.0,82,0.00,,,0.01,,2013-05-21 08:01:00,
2013-05-21 02:11:00,44.0,39.0,30.16,SE,135,1.0,2.0,82,0.00,,,0.01,,2013-05-21 08:11:00,
2013-05-21 02:21:00,43.0,38.0,30.16,South,180,1.0,2.0,82,0.00,,,0.01,,2013-05-21 08:21:00,
2013-05-21 02:31:00,43.0,38.0,30.15,SW,225,3.0,4.0,84,0.00,,,0.01,,2013-05-21 08:31:00,
2013-05-21 02:41:00,43.0,38.0,30.14,SE,135,1.0,4.0,84,0.00,,,0.01,,2013-05-21 08:41:00,
2013-05-21 02:52:00,43.0,38.0,30.14,SE,135,1.0,4.0,84,0.00,,,0.01,,2013-05-21 08:52:00,
2013-05-21 03:01:00,42.0,38.0,30.14,SE,135,0.0,2.0,85,0.00,,,0.01,,2013-05-21 09:01:00,
2013-05-21 03:11:00,42.0,38.0,30.14,SE,135,0.0,2.0,85,0.00,,,0.01,,2013-05-21 09:11:00,
2013-05-21 03:21:00,42.0,38.0,30.14,South,180,2.0,2.0,85,0.00,,,0.01,,2013-05-21 09:21:00,
2013-05-21 03:32:00,42.0,38.0,30.13,NE,45,0.0,2.0,85,0.00,,,0.01,,2013-05-21 09:32:00,
2013-05-21 03:41:00,42.0,38.0,30.13,NE,45,0.0,2.0,85,0.00,,,0.01,,2013-05-21 09:41:00,
2013-05-21 03:53:00,42.0,38.0,30.13,SE,135,1.0,3.0,86,0.00,,,0.01,,2013-05-21 09:53:00,
2013-05-21 04:02:00,42.0,38.0,30.13,South,180,1.0,3.0,86,0.00,,,0.01,,2013-05-21 10:02:00,
2013-05-21 04:12:00,42.0,38.0,30.13,South,180,1.0,3.0,86,0.00,,,0.01,,2013-05-21 10:12:00,
2013-05-21 04:22:00,42.0,38.0,30.12,SE,135,0.0,2.0,87,0.00,,,0.01,,2013-05-21 10:22:00,
2013-05-21 04:32:00,41.0,37.0,30.12,South,180,0.0,2.0,87,0.00,,,0.01,,2013-05-21 10:32:00,
2013-05-21 04:41:00,41.0,37.0,30.12,South,180,0.0,2.0,87,0.00,,,0.01,,2013-05-21 10:41:00,
2013-05-21 04:52:00,41.0,37.0,30.11,SE,135,1.0,3.0,87,0.00,,,0.01,,2013-05-21 10:52:00,
2013-05-21 05:02:00,41.0,38.0,30.11,South,180,0.0,2.0,88,0.00,,,0.01,,2013-05-21 11:02:00,
2013-05-21 05:11:00,41.0,38.0,30.11,South,180,0.0,2.0,88,0.00,,,0.01,,2013-05-21 11:11:00,
2013-05-21 05:21:00,40.0,37.0,30.11,South,180,2.0,2.0,89,0.00,,,0.01,,2013-05-21 11:21:00,
2013-05-21 05:31:00,40.0,37.0,30.11,South,180,1.0,3.0,89,0.00,,,0.01,,2013-05-21 11:31:00,
2013-05-21 05:41:00,40.0,37.0,30.11,South,180,1.0,3.0,89,0.00,,,0.01,,2013-05-21 11:41:00,
2013-05-21 05:52:00,40.0,37.0,30.10,SE,135,0.0,2.0,90,0.00,,,0.01,,2013-05-21 11:52:00,
2013-05-21 06:01:00,40.0,37.0,30.10,South,180,2.0,4.0,90,0.00,,,0.01,,2013-05-21 12:01:00,
2013-05-21 06:11:00,40.0,37.0,30.10,South,180,2.0,4.0,90,0.00,,,0.01,,2013-05-21 12:11:00,
2013-05-21 06:21:00,39.0,36.0,30.10,South,180,0.0,1.0,90,0.00,,,0.01,,2013-05-21 12:21:00,
2013-05-21 06:31:00,39.0,37.0,30.09,SE,135,2.0,3.0,91,0.00,,,0.01,,2013-05-21 12:31:00,
2013-05-21 06:41:00,39.0,37.0,30.09,SE,135,2.0,3.0,91,0.00,,,0.01,,2013-05-21 12:41:00,
2013-05-21 06:52:00,40.0,38.0,30.09,South,180,2.0,3.0,91,0.00,,,0.01,,2013-05-21 12:52:00,
2013-05-21 07:01:00,40.0,38.0,30.09,SE,135,0.0,2.0,92,0.00,,,0.01,,2013-05-21 13:01:00,
2013-05-21 07:11:00,40.0,38.0,30.09,SE,135,0.0,2.0,92,0.00,,,0.01,,2013-05-21 13:11:00,
2013-05-21 07:22:00,40.0,38.0,30.08,South,180,0.0,2.0,93,0.00,,,0.01,,2013-05-21 13:22:00,
2013-05-21 07:31:00,41.0,39.0,30.07,South,180,0.0,2.0,93,0.00,,,0.01,,2013-05-21 13:31:00,
2013-05-21 07:41:00,41.0,39.0,30.07,South,180,0.0,2.0,93,0.00,,,0.01,,2013-05-21 13:41:00,
2013-05-21 07:52:00,42.0,40.0,30.07,South,180,2.0,3.0,94,0.00,,,0.01,,2013-05-21 13:52:00,
2013-05-21 08:01:00,43.0,41.0,30.06,SE,135,0.0,1.0,94,0.00,,,0.01,,2013-05-21 14:01:00,
2013-05-21 08:11:00,43.0,41.0,30.06,SE,135,0.0,1.0,94,0.00,,,0.01,,2013-05-21 14:11:00,
2013-05-21 08:21:00,44.0,42.0,30.06,West,270,0.0,0.0,94,0.00,,,0.01,,2013-05-21 14:21:00,
2013-05-21 08:31:00,49.0,48.0,30.06,West,270,0.0,2.0,95,0.00,,,0.01,,2013-05-21 14:31:00,
2013-05-21 09:01:00,61.0,51.0,30.04,SW,225,0.0,2.0,70,0.00,,,0.01,,2013-05-21 15:01:00,
2013-05-21 09:32:00,64.0,51.0,30.03,West,270,1.0,4.0,63,0.00,,,0.01,,2013-05-21 15:32:00,
2013-05-21 09:42:00,67.0,50.0,30.03,North,0,0.0,3.0,55,0.00,,,0.01,,2013-05-21 15:42:00,
2013-05-21 10:02:00,67.0,50.0,30.02,North,0,1.0,4.0,54,0.00,,,0.01,,2013-05-21 16:02:00,
2013-05-21 10:32:00,67.0,50.0,30.01,West,270,0.0,4.0,54,0.00,,,0.00,,2013-05-21 16:32:00,
2013-05-21 10:42:00,69.0,52.0,30.00,West,270,2.0,5.0,54,0.00,,,0.00,,2013-05-21 16:42:00,
2013-05-21 11:02:00,71.0,52.0,30.00,NW,315,2.0,7.0,52,0.00,,,0.00,,2013-05-21 17:02:00,
2013-05-21 11:22:00,69.0,50.0,30.00,NW,315,0.0,5.0,50,0.00,,,0.00,,2013-05-21 17:22:00,
2013-05-21 11:32:00,70.0,51.0,29.98,NW,315,2.0,5.0,51,0.00,,,0.00,,2013-05-21 17:32:00,
2013-05-21 11:43:00,70.0,50.0,29.98,West,270,0.0,4.0,49,0.00,,,0.00,,2013-05-21 17:43:00,
2013-05-21 11:52:00,70.0,50.0,29.98,West,270,0.0,4.0,49,0.00,,,0.00,,2013-05-21 17:52:00,
2013-05-21 12:01:00,72.0,46.0,29.97,South,180,5.0,8.0,39,0.00,,,0.00,,2013-05-21 18:01:00,
2013-05-21 12:22:00,71.0,44.0,29.97,South,180,2.0,7.0,38,0.00,,,0.00,,2013-05-21 18:22:00,
2013-05-21 12:32:00,72.0,44.0,29.96,South,180,2.0,9.0,36,0.00,,,0.00,,2013-05-21 18:32:00,
2013-05-21 12:52:00,73.0,44.0,29.96,South,180,2.0,8.0,35,0.00,,,0.00,,2013-05-21 18:52:00,
2013-05-21 13:01:00,72.0,42.0,29.94,East,90,4.0,13.0,34,0.00,,,0.00,,2013-05-21 19:01:00,
2013-05-21 13:11:00,72.0,42.0,29.94,East,90,4.0,13.0,34,0.00,,,0.00,,2013-05-21 19:11:00,
2013-05-21 13:21:00,72.0,44.0,29.94,East,90,3.0,10.0,36,0.00,,,0.00,,2013-05-21 19:21:00,
2013-05-21 13:31:00,73.0,44.0,29.94,SE,135,2.0,6.0,36,0.00,,,0.00,,2013-05-21 19:31:00,
2013-05-21 13:41:00,73.0,44.0,29.94,SE,135,2.0,6.0,36,0.00,,,0.00,,2013-05-21 19:41:00,
2013-05-21 13:52:00,73.0,44.0,29.93,NE,45,4.0,15.0,36,0.00,,,0.00,,2013-05-21 19:52:00,
2013-05-21 14:03:00,73.0,44.0,29.92,North,0,2.0,10.0,35,0.00,,,0.00,,2013-05-21 20:03:00,
2013-05-21 14:11:00,73.0,44.0,29.92,North,0,2.0,10.0,35,0.00,,,0.00,,2013-05-21 20:11:00,
2013-05-21 14:22:00,74.0,45.0,29.91,NW,315,3.0,8.0,35,0.00,,,0.00,,2013-05-21 20:22:00,
2013-05-21 14:32:00,73.0,43.0,29.91,West,270,2.0,8.0,34,0.00,,,0.00,,2013-05-21 20:32:00,
2013-05-21 14:42:00,73.0,43.0,29.91,West,270,2.0,8.0,34,0.00,,,0.00,,2013-05-21 20:42:00,
2013-05-21 14:52:00,74.0,43.0,29.91,SE,135,3.0,8.0,33,0.00,,,0.00,,2013-05-21 20:52:00,
2013-05-21 15:01:00,74.0,44.0,29.91,East,90,4.0,8.0,34,0.00,,,0.00,,2013-05-21 21:01:00,
2013-05-21 15:11:00,74.0,44.0,29.91,East,90,4.0,8.0,34,0.00,,,0.00,,2013-05-21 21:11:00,
2013-05-21 15:21:00,73.0,43.0,29.89,SW,225,3.0,10.0,34,0.00,,,0.00,,2013-05-21 21:21:00,
2013-05-21 15:32:00,74.0,43.0,29.89,East,90,2.0,6.0,33,0.00,,,0.00,,2013-05-21 21:32:00,
2013-05-21 15:43:00,74.0,43.0,29.89,East,90,2.0,6.0,33,0.00,,,0.00,,2013-05-21 21:43:00,
2013-05-21 15:54:00,75.0,45.0,29.88,West,270,0.0,4.0,34,0.00,,,0.00,,2013-05-21 21:54:00,
2013-05-21 16:02:00,75.0,43.0,29.88,North,0,2.0,8.0,32,0.00,,,0.00,,2013-05-21 22:02:00,
2013-05-21 16:12:00,75.0,43.0,29.88,North,0,2.0,8.0,32,0.00,,,0.00,,2013-05-21 22:12:00,
2013-05-21 16:22:00,75.0,42.0,29.87,South,180,2.0,7.0,31,0.00,,,0.00,,2013-05-21 22:22:00,
2013-05-21 16:33:00,75.0,42.0,29.87,NE,45,4.0,11.0,31,0.00,,,0.00,,2013-05-21 22:33:00,
2013-05-21 16:41:00,75.0,42.0,29.87,NE,45,4.0,11.0,31,0.00,,,0.00,,2013-05-21 22:41:00,
2013-05-21 16:52:00,74.0,42.0,29.86,South,180,2.0,4.0,32,0.00,,,0.00,,2013-05-21 22:52:00,
2013-05-21 17:02:00,72.0,41.0,29.86,NE,45,4.0,11.0,32,0.00,,,0.00,,2013-05-21 23:02:00,
2013-05-21 17:12:00,72.0,41.0,29.86,NE,45,4.0,11.0,32,0.00,,,0.00,,2013-05-21 23:12:00,
2013-05-21 17:22:00,70.0,43.0,29.85,NW,315,1.0,4.0,38,0.00,,,0.00,,2013-05-21 23:22:00,
2013-05-21 17:32:00,70.0,44.0,29.85,East,90,2.0,4.0,39,0.00,,,0.00,,2013-05-21 23:32:00,
2013-05-21 17:42:00,70.0,46.0,29.84,NW,315,2.0,3.0,43,0.00,,,0.00,,2013-05-21 23:42:00,
2013-05-21 17:52:00,70.0,46.0,29.84,NW,315,2.0,3.0,43,0.00,,,0.00,,2013-05-21 23:52:00,
2013-05-21 18:01:00,70.0,45.0,29.85,NE,45,2.0,3.0,40,0.00,,,0.00,,2013-05-22 00:01:00,
2013-05-21 18:11:00,70.0,45.0,29.85,NE,45,2.0,3.0,40,0.00,,,0.00,,2013-05-22 00:11:00,
2013-05-21 18:21:00,69.0,46.0,29.85,SW,225,1.0,2.0,43,0.00,,,0.00,,2013-05-22 00:21:00,
2013-05-21 18:31:00,65.0,46.0,29.87,NW,315,4.0,10.0,51,0.01,,,0.01,,2013-05-22 00:31:00,
2013-05-21 18:41:00,65.0,46.0,29.87,NW,315,4.0,10.0,51,0.01,,,0.01,,2013-05-22 00:41:00,
2013-05-21 18:52:00,60.0,46.0,29.88,South,180,2.0,12.0,59,0.03,,,0.03,,2013-05-22 00:52:00,
2013-05-21 19:01:00,57.0,47.0,29.87,SW,225,1.0,4.0,68,0.03,,,0.03,,2013-05-22 01:01:00,
2013-05-21 19:11:00,57.0,47.0,29.87,SW,225,1.0,4.0,68,0.03,,,0.03,,2013-05-22 01:11:00,
2013-05-21 19:21:00,57.0,48.0,29.88,NE,45,1.0,2.0,72,0.03,,,0.03,,2013-05-22 01:21:00,
2013-05-21 19:31:00,56.0,48.0,29.88,East,90,4.0,10.0,74,0.03,,,0.04,,2013-05-22 01:31:00,
2013-05-21 19:41:00,56.0,48.0,29.88,East,90,4.0,10.0,74,0.03,,,0.04,,2013-05-22 01:41:00,
2013-05-21 19:52:00,54.0,47.0,29.85,NE,45,3.0,4.0,77,0.03,,,0.07,,2013-05-22 01:52:00,
2013-05-21 20:01:00,53.0,48.0,29.83,NE,45,2.0,4.0,82,0.03,,,0.07,,2013-05-22 02:01:00,
2013-05-21 20:11:00,53.0,48.0,29.83,NE,45,2.0,4.0,82,0.03,,,0.07,,2013-05-22 02:11:00,
2013-05-21 20:21:00,53.0,47.0,29.84,North,0,2.0,12.0,81,0.03,,,0.07,,2013-05-22 02:21:00,
2013-05-21 20:31:00,55.0,48.0,29.83,SW,225,0.0,7.0,76,0.02,,,0.07,,2013-05-22 02:31:00,
2013-05-21 20:41:00,55.0,48.0,29.83,SW,225,0.0,7.0,76,0.02,,,0.07,,2013-05-22 02:41:00,
2013-05-21 20:52:00,54.0,48.0,29.83,South,180,0.0,2.0,79,0.00,,,0.07,,2013-05-22 02:52:00,
2013-05-21 21:01:00,54.0,48.0,29.83,SE,135,0.0,6.0,80,0.00,,,0.07,,2013-05-22 03:01:00,
2013-05-21 21:11:00,54.0,48.0,29.83,SE,135,0.0,6.0,80,0.00,,,0.07,,2013-05-22 03:11:00,
2013-05-21 21:21:00,55.0,45.0,29.83,South,180,1.0,8.0,70,0.00,,,0.07,,2013-05-22 03:21:00,
2013-05-21 21:33:00,55.0,45.0,29.84,South,180,0.0,2.0,70,0.00,,,0.07,,2013-05-22 03:33:00,
2013-05-21 21:43:00,55.0,45.0,29.84,SE,135,1.0,5.0,70,0.00,,,0.07,,2013-05-22 03:43:00,
2013-05-21 21:53:00,55.0,45.0,29.84,SE,135,1.0,5.0,70,0.00,,,0.07,,2013-05-22 03:53:00,
2013-05-21 22:03:00,54.0,45.0,29.84,SW,225,0.0,2.0,72,0.00,,,0.07,,2013-05-22 04:03:00,
2013-05-21 22:12:00,54.0,45.0,29.84,SW,225,0.0,2.0,72,0.00,,,0.07,,2013-05-22 04:12:00,
2013-05-21 22:22:00,54.0,45.0,29.84,NW,315,2.0,4.0,72,0.00,,,0.07,,2013-05-22 04:22:00,
2013-05-21 22:33:00,55.0,43.0,29.84,SW,225,2.0,4.0,65,0.00,,,0.07,,2013-05-22 04:33:00,
2013-05-21 22:42:00,56.0,41.0,29.83,NW,315,2.0,8.0,58,0.00,,,0.07,,2013-05-22 04:42:00,
2013-05-21 22:53:00,56.0,41.0,29.83,NW,315,2.0,8.0,58,0.00,,,0.07,,2013-05-22 04:53:00,
2013-05-21 23:02:00,57.0,41.0,29.83,West,270,1.0,4.0,56,0.00,,,0.07,,2013-05-22 05:02:00,
2013-05-21 23:11:00,57.0,41.0,29.83,West,270,1.0,4.0,56,0.00,,,0.07,,2013-05-22 05:11:00,
2013-05-21 23:21:00,57.0,41.0,29.85,NW,315,0.0,2.0,55,0.00,,,0.07,,2013-05-22 05:21:00,
2013-05-21 23:31:00,56.0,42.0,29.86,South,180,1.0,2.0,60,0.01,,,0.08,,2013-05-22 05:31:00,
2013-05-21 23:42:00,56.0,42.0,29.86,South,180,1.0,2.0,60,0.01,,,0.08,,2013-05-22 05:42:00,
2013-05-21 23:52:00,55.0,42.0,29.86,SE,135,2.0,3.0,62,0.01,,,0.08,,2013-05-22 05:52:00,